Time;durP1;ratioP1;P1;durP2;ratioP2;P2;SDS_P1;SDS_P2;PMS_P1;PMS_P2;Temp;Humidity;BMP_temperature;BMP_pressure;BME280_temperature;BME280_humidity;BME280_pressure;Samples;Min_cycle;Max_cycle;Signal;HPM_P1;HPM_P2
2021/04/04 00:00:12;;;;;;;15.30;7.00;;;;;;;7.04;43.83;97217.56;5029150;28;20195;-68
2021/04/04 00:02:38;;;;;;;14.60;8.20;;;;;;;6.91;43.53;97215.19;5031560;28;20184;-68
2021/04/04 00:05:05;;;;;;;17.03;7.47;;;;;;;6.57;44.78;97211.94;5031222;28;20536;-68
2021/04/04 00:07:31;;;;;;;12.00;6.50;;;;;;;6.67;44.72;97206.81;5030162;28;20194;-66
2021/04/04 00:09:57;;;;;;;20.90;6.93;;;;;;;6.51;45.05;97215.88;5030485;28;20430;-67
2021/04/04 00:12:22;;;;;;;10.93;5.87;;;;;;;6.39;45.38;97216.88;5031275;28;20205;-67
2021/04/04 00:14:48;;;;;;;19.63;7.73;;;;;;;6.46;45.08;97218.03;5029733;28;20202;-66
2021/04/04 00:17:13;;;;;;;23.13;9.27;;;;;;;6.39;45.46;97219.50;5021654;28;20659;-69
2021/04/04 00:19:39;;;;;;;17.30;8.33;;;;;;;6.46;45.03;97220.63;5026184;28;20184;-68
2021/04/04 00:22:05;;;;;;;19.93;7.80;;;;;;;6.49;45.22;97207.38;5027281;28;20856;-68
2021/04/04 00:24:30;;;;;;;18.07;8.07;;;;;;;6.49;45.43;97209.97;5024013;28;20215;-69
2021/04/04 00:26:56;;;;;;;13.40;6.83;;;;;;;6.58;45.05;97214.41;5030636;28;20191;-69
2021/04/04 00:29:22;;;;;;;16.27;7.07;;;;;;;6.58;45.06;97209.19;5030363;28;20294;-69
2021/04/04 00:31:47;;;;;;;16.73;6.77;;;;;;;6.39;45.02;97207.28;5031112;28;20256;-69
2021/04/04 00:34:13;;;;;;;15.80;7.23;;;;;;;6.34;45.46;97208.63;5029100;28;20206;-68
2021/04/04 00:36:39;;;;;;;14.27;7.77;;;;;;;6.01;46.38;97213.00;5030850;28;20277;-68
2021/04/04 00:39:09;;;;;;;19.47;7.10;;;;;;;5.99;46.69;97216.56;5028752;28;20937;-68
2021/04/04 00:41:35;;;;;;;12.33;6.57;;;;;;;5.90;46.44;97206.03;5030744;28;20175;-69
2021/04/04 00:44:02;;;;;;;20.33;7.13;;;;;;;5.92;46.10;97207.56;5029418;28;21000;-68
2021/04/04 00:46:28;;;;;;;13.77;7.57;;;;;;;5.88;46.31;97206.16;5021226;28;20233;-69
2021/04/04 00:48:54;;;;;;;16.73;6.70;;;;;;;6.02;46.44;97204.25;5030240;28;20422;-70
2021/04/04 00:51:20;;;;;;;16.37;6.77;;;;;;;6.15;45.85;97204.94;5034709;28;20171;-70
2021/04/04 00:53:45;;;;;;;10.40;5.77;;;;;;;6.20;46.09;97207.97;5018636;28;20425;-70
2021/04/04 00:56:12;;;;;;;11.23;5.60;;;;;;;6.29;45.18;97209.84;5037465;28;20449;-70
2021/04/04 00:58:38;;;;;;;11.60;5.80;;;;;;;6.30;45.51;97211.47;5035561;28;20179;-71
2021/04/04 01:01:03;;;;;;;10.13;5.00;;;;;;;6.31;45.35;97207.09;5036293;28;20525;-69
2021/04/04 01:03:29;;;;;;;11.40;5.83;;;;;;;6.32;45.54;97203.53;5037285;28;20915;-69
2021/04/04 01:05:56;;;;;;;12.97;6.60;;;;;;;6.26;45.75;97199.66;5037637;28;20207;-68
2021/04/04 01:08:22;;;;;;;12.80;6.30;;;;;;;6.29;45.25;97202.03;5037807;28;20213;-68
2021/04/04 01:10:49;;;;;;;13.47;7.00;;;;;;;6.11;45.52;97193.91;5034600;28;20422;-67
2021/04/04 01:13:22;;;;;;;14.70;6.77;;;;;;;6.10;46.15;97201.84;5037900;28;20421;-68
2021/04/04 01:16:24;;;;;;;17.23;6.90;;;;;;;6.11;45.81;97198.31;5027477;28;20497;-68
2021/04/04 01:18:57;;;;;;;14.33;6.80;;;;;;;6.30;45.49;97193.25;5030679;28;20916;-68
2021/04/04 01:21:33;;;;;;;12.60;6.83;;;;;;;6.36;45.30;97196.31;5037474;28;20450;-67
2021/04/04 01:24:34;;;;;;;15.70;7.40;;;;;;;6.32;45.61;97200.94;5035915;28;20457;-69
2021/04/04 01:27:26;;;;;;;10.23;5.67;;;;;;;6.23;45.51;97204.31;4991487;28;20792;-67
2021/04/04 01:29:52;;;;;;;13.90;8.07;;;;;;;6.05;46.14;97204.03;5003395;28;20426;-68
2021/04/04 01:32:18;;;;;;;16.07;8.83;;;;;;;5.96;46.61;97203.75;5019552;28;20418;-68
2021/04/04 01:34:44;;;;;;;22.37;10.40;;;;;;;5.94;46.71;97197.03;5035776;28;20521;-67
2021/04/04 01:37:12;;;;;;;19.40;9.97;;;;;;;6.00;46.43;97199.16;5036260;28;20237;-68
2021/04/04 01:40:05;;;;;;;15.93;8.50;;;;;;;6.02;46.38;97201.66;5018945;28;20183;-68
2021/04/04 01:42:32;;;;;;;20.13;8.03;;;;;;;5.94;45.92;97203.06;5025822;28;20466;-68
2021/04/04 01:44:58;;;;;;;11.23;7.57;;;;;;;5.95;46.58;97188.28;5033250;28;20465;-68
2021/04/04 01:47:23;;;;;;;16.03;7.13;;;;;;;6.00;46.16;97196.56;5028365;28;20913;-68
2021/04/04 01:49:51;;;;;;;15.50;6.47;;;;;;;5.80;46.42;97200.72;5034568;28;20249;-68
2021/04/04 01:52:17;;;;;;;14.73;6.60;;;;;;;5.76;46.26;97194.13;5002965;28;20183;-68
2021/04/04 01:54:44;;;;;;;11.70;6.20;;;;;;;5.70;46.73;97190.25;5036035;28;20513;-69
2021/04/04 01:57:11;;;;;;;23.00;6.23;;;;;;;5.58;46.91;97196.44;5035680;28;20426;-68
2021/04/04 01:59:37;;;;;;;8.53;5.43;;;;;;;5.57;47.02;97190.38;5034899;28;20422;-68
2021/04/04 02:02:05;;;;;;;13.53;6.13;;;;;;;5.56;46.57;97193.94;5033947;28;20461;-67
2021/04/04 02:04:30;;;;;;;9.80;6.13;;;;;;;5.37;47.68;97190.19;5031661;28;20519;-68
2021/04/04 02:06:56;;;;;;;12.93;5.83;;;;;;;5.54;47.32;97181.06;5032328;28;20426;-68
2021/04/04 02:09:23;;;;;;;8.70;5.23;;;;;;;5.75;46.71;97182.09;5031301;28;20184;-69
2021/04/04 02:11:50;;;;;;;8.80;5.20;;;;;;;5.82;46.79;97175.44;5032420;28;20442;-69
2021/04/04 02:14:20;;;;;;;12.20;6.10;;;;;;;5.75;46.49;97182.09;5033367;28;20466;-67
2021/04/04 02:16:49;;;;;;;13.40;6.37;;;;;;;5.71;46.64;97180.66;5025000;28;20426;-68
2021/04/04 02:19:18;;;;;;;10.73;5.40;;;;;;;5.62;47.56;97182.22;5026851;28;20947;-68
2021/04/04 02:21:46;;;;;;;10.57;5.93;;;;;;;5.81;46.81;97178.97;5007561;28;20427;-67
2021/04/04 02:24:12;;;;;;;14.10;4.83;;;;;;;5.81;46.48;97176.38;5032959;28;20501;-67
2021/04/04 02:26:37;;;;;;;8.23;4.67;;;;;;;5.84;47.02;97176.13;5031090;28;20485;-68
2021/04/04 02:29:04;;;;;;;7.03;4.63;;;;;;;5.80;46.51;97164.31;5030631;28;20713;-68
2021/04/04 02:31:34;;;;;;;11.90;4.90;;;;;;;5.79;47.01;97173.09;5034145;28;20577;-67
2021/04/04 02:34:03;;;;;;;13.53;5.07;;;;;;;5.72;47.07;97171.91;5032797;28;20427;-68
2021/04/04 02:36:30;;;;;;;6.53;4.40;;;;;;;5.68;46.56;97174.75;5031652;28;20906;-67
2021/04/04 02:39:22;;;;;;;8.63;4.70;;;;;;;5.56;46.90;97173.13;5032397;28;20451;-68
2021/04/04 02:41:48;;;;;;;13.90;4.87;;;;;;;5.33;47.56;97172.34;5031969;28;20430;-69
2021/04/04 02:44:14;;;;;;;8.13;5.10;;;;;;;5.24;48.29;97171.28;5026172;28;20473;-69
2021/04/04 02:46:42;;;;;;;8.37;4.77;;;;;;;5.38;47.68;97171.06;5022068;28;20184;-68
2021/04/04 02:49:09;;;;;;;9.30;4.40;;;;;;;5.47;47.29;97164.31;5030728;28;20430;-67
2021/04/04 02:51:39;;;;;;;11.13;4.20;;;;;;;5.27;47.90;97173.66;5031712;28;20430;-68
2021/04/04 02:54:05;;;;;;;9.80;4.47;;;;;;;5.17;48.43;97167.50;5026976;28;20914;-69
2021/04/04 02:56:38;;;;;;;11.13;4.67;;;;;;;5.20;48.26;97172.47;5012877;28;20493;-68
2021/04/04 02:59:10;;;;;;;9.17;4.97;;;;;;;5.08;48.46;97164.69;5013516;28;20442;-68
2021/04/04 03:01:36;;;;;;;10.60;4.10;;;;;;;5.16;49.04;97163.28;5031655;28;20537;-69
2021/04/04 03:04:04;;;;;;;7.47;4.13;;;;;;;5.22;48.21;97162.78;5012434;28;20463;-67
2021/04/04 03:06:31;;;;;;;9.30;4.50;;;;;;;5.05;48.60;97161.50;5023724;28;20427;-69
2021/04/04 03:08:57;;;;;;;8.33;4.00;;;;;;;5.05;48.59;97164.91;5010408;28;20439;-68
2021/04/04 03:11:23;;;;;;;6.20;4.13;;;;;;;5.18;48.23;97167.41;5012853;28;20787;-67
2021/04/04 03:13:50;;;;;;;11.33;4.73;;;;;;;4.98;49.26;97168.94;5010763;28;20176;-68
2021/04/04 03:16:18;;;;;;;6.03;3.83;;;;;;;4.99;49.08;97167.16;5011543;28;20942;-68
2021/04/04 03:18:44;;;;;;;6.73;4.07;;;;;;;4.74;49.69;97169.03;5012585;28;21047;-68
2021/04/04 03:21:11;;;;;;;9.37;4.57;;;;;;;4.61;50.58;97175.16;5010432;28;20454;-69
2021/04/04 03:23:38;;;;;;;13.97;4.70;;;;;;;4.67;49.96;97176.47;5009849;28;20527;-69
2021/04/04 03:26:04;;;;;;;11.43;4.10;;;;;;;4.74;50.09;97169.88;5010178;28;20467;-72
2021/04/04 03:28:30;;;;;;;6.63;4.20;;;;;;;4.89;50.03;97169.66;5012827;28;20479;-70
2021/04/04 03:30:56;;;;;;;9.00;4.20;;;;;;;4.97;48.76;97167.28;4993935;28;20814;-71
2021/04/04 03:33:22;;;;;;;4.00;3.60;;;;;;;4.96;48.90;97173.44;5013347;28;20180;-70
2021/04/04 03:35:50;;;;;;;7.77;4.17;;;;;;;4.93;49.38;97176.25;5010790;28;20200;-70
2021/04/04 03:38:17;;;;;;;8.40;4.13;;;;;;;4.99;49.25;97178.38;5011320;28;20806;-70
2021/04/04 03:40:43;;;;;;;6.10;4.03;;;;;;;5.01;48.97;97166.13;4993230;28;20423;-70
2021/04/04 03:43:11;;;;;;;7.90;3.83;;;;;;;5.05;48.54;97172.72;5018842;28;20434;-71
2021/04/04 03:45:37;;;;;;;8.93;4.03;;;;;;;5.15;48.63;97169.41;5011141;28;20832;-72
2021/04/04 03:48:04;;;;;;;6.03;3.63;;;;;;;4.90;48.63;97171.31;4994472;28;20529;-70
2021/04/04 03:50:31;;;;;;;14.13;4.60;;;;;;;4.78;49.67;97164.47;5009869;28;20578;-70
2021/04/04 03:52:58;;;;;;;7.30;3.70;;;;;;;4.76;49.85;97168.00;4994424;28;20918;-71
2021/04/04 03:55:24;;;;;;;11.90;3.90;;;;;;;4.77;49.73;97171.41;5011873;28;20454;-71
2021/04/04 03:57:51;;;;;;;9.80;4.03;;;;;;;4.45;50.12;97172.06;5011816;28;20435;-70
2021/04/04 04:00:20;;;;;;;7.83;3.67;;;;;;;4.49;50.96;97172.66;5010753;28;20453;-71
2021/04/04 04:02:47;;;;;;;5.70;3.50;;;;;;;4.37;50.73;97172.66;5010612;28;20419;-70
2021/04/04 04:05:15;;;;;;;7.63;4.37;;;;;;;4.15;51.34;97176.00;5009301;28;20542;-70
2021/04/04 04:07:42;;;;;;;9.93;4.00;;;;;;;4.38;51.47;97179.50;5010718;28;20424;-70
2021/04/04 04:10:08;;;;;;;6.97;3.50;;;;;;;4.59;50.81;97169.28;5009707;28;20424;-71
2021/04/04 04:12:34;;;;;;;7.47;3.93;;;;;;;4.59;49.84;97168.44;5011826;28;20658;-70
2021/04/04 04:15:00;;;;;;;9.67;4.10;;;;;;;4.49;50.95;97170.06;5010127;28;20458;-71
2021/04/04 04:17:27;;;;;;;9.00;3.50;;;;;;;4.56;50.43;97166.91;5010594;28;20427;-71
2021/04/04 04:19:53;;;;;;;6.50;3.80;;;;;;;4.54;50.41;97170.53;5027983;28;20428;-71
2021/04/04 04:22:20;;;;;;;10.93;4.53;;;;;;;4.51;50.33;97165.59;5010619;28;20424;-71
2021/04/04 04:24:50;;;;;;;10.40;4.37;;;;;;;4.52;50.89;97164.66;5009038;28;21025;-70
2021/04/04 04:27:17;;;;;;;9.00;4.40;;;;;;;4.65;50.32;97168.00;4993890;28;20439;-71
2021/04/04 04:29:50;;;;;;;9.93;3.80;;;;;;;4.71;50.68;97164.09;5009583;28;20510;-70
2021/04/04 04:32:20;;;;;;;8.27;3.43;;;;;;;4.86;49.91;97155.13;5004543;28;20428;-69
2021/04/04 04:34:47;;;;;;;8.50;3.97;;;;;;;4.92;49.79;97151.22;5011861;28;20497;-71
2021/04/04 04:37:13;;;;;;;7.07;4.00;;;;;;;4.80;49.50;97152.16;4996055;28;20431;-70
2021/04/04 04:39:39;;;;;;;7.93;4.13;;;;;;;4.69;50.11;97151.22;5010643;28;20419;-70
2021/04/04 04:42:09;;;;;;;11.33;4.80;;;;;;;4.51;50.62;97150.03;5009401;28;20429;-71
2021/04/04 04:44:35;;;;;;;8.90;4.10;;;;;;;4.50;51.07;97150.97;4993264;28;20299;-71
2021/04/04 04:47:01;;;;;;;9.07;4.07;;;;;;;4.42;51.09;97152.34;5009688;28;20498;-71
2021/04/04 04:49:26;;;;;;;11.47;4.80;;;;;;;4.39;51.11;97157.78;4992619;28;20188;-70
2021/04/04 04:51:53;;;;;;;19.27;4.27;;;;;;;4.47;50.89;97157.22;5009817;28;20438;-71
2021/04/04 04:54:18;;;;;;;13.73;4.90;;;;;;;4.55;50.84;97156.63;5010228;28;20571;-71
2021/04/04 04:56:44;;;;;;;9.40;4.80;;;;;;;4.50;51.02;97163.94;5009872;28;20432;-70
2021/04/04 04:59:11;;;;;;;5.70;4.10;;;;;;;4.61;50.39;97159.59;5010059;28;20699;-70
2021/04/04 05:01:45;;;;;;;11.30;5.47;;;;;;;4.60;51.33;97164.91;5010587;28;20474;-70
2021/04/04 05:04:11;;;;;;;9.43;4.20;;;;;;;4.49;51.15;97157.09;5000468;28;20854;-70
2021/04/04 05:06:38;;;;;;;6.50;4.40;;;;;;;4.63;50.85;97156.03;5011672;28;20434;-71
2021/04/04 05:09:06;;;;;;;6.33;4.60;;;;;;;4.58;51.23;97159.84;5008933;28;20439;-70
2021/04/04 05:11:33;;;;;;;8.80;5.03;;;;;;;4.53;51.18;97159.34;5009034;28;20938;-70
2021/04/04 05:13:59;;;;;;;8.70;5.17;;;;;;;4.51;51.53;97155.22;5009628;28;20431;-71
2021/04/04 05:16:30;;;;;;;9.63;4.77;;;;;;;4.33;52.13;97158.22;5015929;28;20426;-70
2021/04/04 05:18:55;;;;;;;12.23;4.57;;;;;;;4.24;52.08;97162.34;5025284;28;20279;-70
2021/04/04 05:21:25;;;;;;;19.17;6.20;;;;;;;4.19;52.99;97158.44;5029810;28;20514;-70
2021/04/04 05:24:00;;;;;;;10.90;4.80;;;;;;;4.43;52.23;97159.19;5030185;28;20207;-70
2021/04/04 05:26:28;;;;;;;10.47;4.80;;;;;;;4.32;52.33;97163.56;5030245;28;20446;-69
2021/04/04 05:28:54;;;;;;;8.70;4.30;;;;;;;4.41;52.03;97160.25;5030947;28;20506;-70
2021/04/04 05:31:20;;;;;;;15.83;4.93;;;;;;;4.55;50.53;97164.41;5011487;28;20422;-70
2021/04/04 05:33:46;;;;;;;9.90;4.37;;;;;;;4.41;51.55;97160.25;5029066;28;20430;-70
2021/04/04 05:36:12;;;;;;;5.97;3.90;;;;;;;4.53;50.88;97163.72;5030471;28;20449;-70
2021/04/04 05:38:38;;;;;;;10.70;3.63;;;;;;;4.70;50.90;97158.06;5033149;28;20430;-70
2021/04/04 05:41:03;;;;;;;14.23;4.93;;;;;;;4.51;51.27;97160.41;5025334;28;20188;-70
2021/04/04 05:43:36;;;;;;;9.70;3.57;;;;;;;4.70;51.32;97158.06;5034264;28;20671;-70
2021/04/04 05:46:17;;;;;;;21.43;4.33;;;;;;;4.89;50.52;97157.47;5028350;28;20299;-71
2021/04/04 05:49:17;;;;;;;7.50;4.10;;;;;;;5.25;49.57;97157.38;5033850;28;20427;-70
2021/04/04 05:51:52;;;;;;;6.00;4.20;;;;;;;5.64;48.90;97160.38;5026096;28;20447;-70
2021/04/04 05:54:55;;;;;;;7.87;4.07;;;;;;;5.90;48.34;97154.84;5020630;28;20579;-71
2021/04/04 05:57:27;;;;;;;9.80;4.03;;;;;;;6.12;47.92;97153.94;5020347;28;20406;-70
2021/04/04 06:00:12;;;;;;;10.60;4.43;;;;;;;6.23;47.60;97150.47;5032197;28;20434;-70
2021/04/04 06:02:37;;;;;;;14.40;4.63;;;;;;;6.20;47.48;97153.31;5032837;28;20431;-70
2021/04/04 06:05:07;;;;;;;14.67;4.67;;;;;;;6.44;46.93;97157.44;5033822;28;20989;-70
2021/04/04 06:07:39;;;;;;;10.07;5.20;;;;;;;6.63;46.63;97156.72;5032861;28;20205;-69
2021/04/04 06:10:12;;;;;;;14.20;4.70;;;;;;;6.99;45.72;97151.16;5032744;28;20423;-71
2021/04/04 06:13:15;;;;;;;7.47;4.33;;;;;;;7.20;45.42;97153.69;5032565;28;20922;-70
2021/04/04 06:15:44;;;;;;;12.20;4.87;;;;;;;7.48;44.63;97153.94;5019891;28;20662;-70
2021/04/04 06:18:19;;;;;;;7.40;4.47;;;;;;;7.73;44.09;97159.59;5020431;28;20522;-69
2021/04/04 06:20:54;;;;;;;8.67;4.23;;;;;;;7.98;43.13;97150.41;5031408;28;20906;-70
2021/04/04 06:23:27;;;;;;;8.60;3.50;;;;;;;8.23;43.34;97158.63;5033469;28;20505;-70
2021/04/04 06:25:58;;;;;;;8.13;3.90;;;;;;;8.42;42.61;97149.94;5032423;28;20937;-70
2021/04/04 06:28:36;;;;;;;10.70;4.10;;;;;;;8.63;42.32;97147.19;5031735;28;20472;-71
2021/04/04 06:31:39;;;;;;;7.90;3.80;;;;;;;8.89;41.86;97143.97;5032401;28;20917;-70
2021/04/04 06:34:34;;;;;;;12.80;4.20;;;;;;;9.16;40.53;97144.94;5032006;28;20419;-70
2021/04/04 06:37:14;;;;;;;13.13;5.57;;;;;;;9.41;39.87;97156.50;5022237;28;20930;-71
2021/04/04 06:39:51;;;;;;;9.27;4.77;;;;;;;9.73;39.29;97150.00;5032718;28;20426;-70
2021/04/04 06:42:25;;;;;;;12.87;4.10;;;;;;;9.72;39.58;97140.50;5019140;28;20448;-71
2021/04/04 06:44:51;;;;;;;7.40;4.77;;;;;;;9.96;38.87;97145.13;5030749;28;20465;-71
2021/04/04 06:47:33;;;;;;;12.87;4.30;;;;;;;10.17;38.03;97141.41;5026695;28;20498;-70
2021/04/04 06:50:17;;;;;;;8.70;4.10;;;;;;;10.41;37.66;97134.72;5031093;28;20222;-70
2021/04/04 06:52:49;;;;;;;6.87;4.13;;;;;;;10.62;37.37;97144.88;5032022;28;21125;-70
2021/04/04 06:55:18;;;;;;;5.37;3.60;;;;;;;10.67;37.23;97149.66;5033095;28;20481;-70
2021/04/04 06:58:07;;;;;;;8.93;4.57;;;;;;;10.62;37.38;97159.75;5033008;28;20429;-70
2021/04/04 07:00:37;;;;;;;11.30;4.80;;;;;;;10.47;37.39;97152.44;5031725;28;20488;-70
2021/04/04 07:03:08;;;;;;;8.53;4.33;;;;;;;10.87;36.75;97151.06;5014714;28;20964;-70
2021/04/04 07:05:38;;;;;;;5.87;4.10;;;;;;;10.91;36.29;97149.78;5031505;28;20469;-69
2021/04/04 07:08:54;;;;;;;8.37;4.63;;;;;;;10.68;37.02;97148.66;5031303;28;20524;-69
2021/04/04 07:11:35;;;;;;;12.20;4.87;;;;;;;11.10;36.24;97152.34;4982453;28;20438;-70
2021/04/04 07:14:25;;;;;;;9.23;4.53;;;;;;;10.83;36.67;97155.00;4990584;28;20457;-69
2021/04/04 07:17:10;;;;;;;11.77;4.87;;;;;;;10.97;36.65;97158.00;4984722;28;20539;-69
2021/04/04 07:19:45;;;;;;;11.10;4.90;;;;;;;11.11;36.51;97146.91;4984978;28;20424;-69
2021/04/04 07:22:13;;;;;;;10.23;4.83;;;;;;;11.02;37.09;97158.34;4982531;28;20416;-70
2021/04/04 07:24:53;;;;;;;18.83;5.23;;;;;;;10.79;37.07;97156.28;4990123;28;20861;-69
2021/04/04 07:27:32;;;;;;;8.93;5.47;;;;;;;10.91;37.18;97155.03;4964486;28;20551;-69
2021/04/04 07:30:30;;;;;;;7.37;4.37;;;;;;;11.03;37.20;97154.75;4971379;28;20448;-71
2021/04/04 07:33:32;;;;;;;9.37;4.87;;;;;;;11.22;37.13;97154.50;4976300;28;20436;-69
2021/04/04 07:36:10;;;;;;;13.57;5.40;;;;;;;10.97;37.47;97148.34;4990586;28;20459;-69
2021/04/04 07:38:50;;;;;;;15.83;5.27;;;;;;;11.31;37.40;97160.63;4973331;28;20478;-68
2021/04/04 07:41:35;;;;;;;10.93;5.33;;;;;;;11.67;36.12;97152.53;4963215;28;20437;-69
2021/04/04 07:44:17;;;;;;;13.30;5.37;;;;;;;11.22;37.52;97157.13;4989035;28;20530;-70
2021/04/04 07:47:02;;;;;;;12.73;5.30;;;;;;;11.78;36.85;97155.84;4996893;28;20434;-70
2021/04/04 07:49:35;;;;;;;12.97;5.17;;;;;;;11.31;36.56;97157.19;5019381;28;20509;-70
2021/04/04 07:52:04;;;;;;;8.53;5.47;;;;;;;10.26;38.63;97166.69;5031215;28;20441;-69
2021/04/04 07:54:51;;;;;;;14.13;5.83;;;;;;;9.75;40.20;97166.38;5030145;28;20442;-70
2021/04/04 07:57:38;;;;;;;12.90;5.37;;;;;;;10.51;38.58;97164.28;5031291;28;20901;-69
2021/04/04 08:00:08;;;;;;;20.73;8.60;;;;;;;11.28;36.93;97165.38;5029823;28;20904;-70
2021/04/04 08:02:54;;;;;;;7.57;5.37;;;;;;;11.92;36.13;97157.00;5030169;28;20807;-70
2021/04/04 08:05:22;;;;;;;10.40;5.00;;;;;;;12.06;35.98;97159.03;5018233;28;20477;-70
2021/04/04 08:07:58;;;;;;;14.53;6.13;;;;;;;11.71;36.40;97158.31;5029319;28;20435;-70
2021/04/04 08:10:30;;;;;;;11.33;6.30;;;;;;;12.00;35.84;97159.66;5030804;28;20441;-70
2021/04/04 08:13:14;;;;;;;10.23;5.50;;;;;;;12.28;35.00;97162.00;5031473;28;20430;-69
2021/04/04 08:16:07;;;;;;;11.40;5.67;;;;;;;12.69;34.63;97161.97;5025656;28;20427;-71
2021/04/04 08:18:34;;;;;;;17.97;6.37;;;;;;;12.41;34.86;97154.44;5022163;28;20537;-70
2021/04/04 08:21:06;;;;;;;10.53;5.40;;;;;;;12.48;34.76;97161.66;5030262;28;20461;-68
2021/04/04 08:23:51;;;;;;;11.73;5.50;;;;;;;12.78;34.24;97154.06;5013702;28;20431;-69
2021/04/04 08:26:26;;;;;;;10.97;5.87;;;;;;;12.89;33.93;97151.06;5029354;28;20454;-69
2021/04/04 08:29:02;;;;;;;8.73;5.40;;;;;;;12.85;33.89;97158.50;5030830;28;20436;-69
2021/04/04 08:31:31;;;;;;;10.27;5.43;;;;;;;13.09;33.63;97151.50;5029766;28;20429;-69
2021/04/04 08:34:20;;;;;;;8.47;4.43;;;;;;;13.11;33.00;97148.72;5028567;28;20430;-68
2021/04/04 08:36:54;;;;;;;7.63;4.63;;;;;;;13.10;33.46;97147.09;5022541;28;20515;-69
2021/04/04 08:39:21;;;;;;;9.10;5.37;;;;;;;12.79;33.40;97150.44;5029029;28;20441;-70
2021/04/04 08:41:48;;;;;;;8.80;5.10;;;;;;;12.96;33.41;97153.84;5028865;28;20430;-71
2021/04/04 08:44:22;;;;;;;11.00;5.33;;;;;;;13.13;32.95;97144.09;5028821;28;20465;-70
2021/04/04 08:47:04;;;;;;;10.67;4.97;;;;;;;13.10;33.04;97147.91;5022671;28;20510;-71
2021/04/04 08:49:30;;;;;;;8.47;5.10;;;;;;;13.34;32.23;97152.25;5027770;28;20434;-70
2021/04/04 08:52:03;;;;;;;7.07;4.90;;;;;;;13.04;31.90;97159.91;5028984;28;20922;-70
2021/04/04 08:54:30;;;;;;;6.90;3.90;;;;;;;13.56;30.63;97154.31;5030647;28;20450;-70
2021/04/04 08:56:59;;;;;;;9.80;3.70;;;;;;;10.92;33.55;97161.09;5030486;28;20430;-71
2021/04/04 08:59:31;;;;;;;3.17;2.80;;;;;;;12.27;30.82;97158.56;5028468;28;20487;-69
2021/04/04 09:02:06;;;;;;;7.70;4.40;;;;;;;12.37;32.22;97155.75;5029775;28;20493;-70
2021/04/04 09:04:34;;;;;;;6.53;3.23;;;;;;;12.73;31.40;97154.56;5030593;28;20517;-69
2021/04/04 09:07:04;;;;;;;10.03;3.73;;;;;;;12.84;30.38;97150.78;5027939;28;20437;-70
2021/04/04 09:09:38;;;;;;;8.70;3.80;;;;;;;13.38;29.88;97142.19;5028506;28;20419;-69
2021/04/04 09:12:05;;;;;;;8.00;3.50;;;;;;;13.79;29.67;97149.09;5031611;28;20448;-69
2021/04/04 09:14:38;;;;;;;6.97;4.43;;;;;;;14.08;28.96;97145.75;5033360;28;20450;-68
2021/04/04 09:17:16;;;;;;;9.27;3.90;;;;;;;13.88;29.65;97150.66;5028540;28;20453;-69
2021/04/04 09:19:45;;;;;;;7.80;4.10;;;;;;;12.94;30.50;97150.56;5026068;28;20456;-69
2021/04/04 09:22:17;;;;;;;6.80;5.00;;;;;;;12.18;30.78;97151.63;5018008;28;20414;-68
2021/04/04 09:25:08;;;;;;;13.73;6.53;;;;;;;12.50;30.75;97146.53;5032798;28;20474;-68
2021/04/04 09:27:36;;;;;;;11.13;4.20;;;;;;;12.65;29.90;97142.25;5022984;28;20427;-71
2021/04/04 09:30:03;;;;;;;6.33;3.20;;;;;;;10.92;32.35;97147.97;5031961;28;20473;-70
2021/04/04 09:32:38;;;;;;;17.70;8.87;;;;;;;11.72;31.60;97148.59;5034101;28;20429;-69
2021/04/04 09:35:05;;;;;;;5.83;3.83;;;;;;;12.07;31.00;97139.66;5016620;28;20464;-68
2021/04/04 09:37:31;;;;;;;7.87;3.93;;;;;;;11.70;31.04;97138.28;5033874;28;20938;-69
2021/04/04 09:39:58;;;;;;;7.07;4.17;;;;;;;11.57;31.37;97146.59;5032320;28;20440;-69
2021/04/04 09:42:24;;;;;;;8.57;4.37;;;;;;;12.42;31.16;97142.09;5033039;28;20433;-69
2021/04/04 09:44:49;;;;;;;5.40;4.00;;;;;;;12.57;31.20;97144.91;5031783;28;20465;-68
2021/04/04 09:47:18;;;;;;;6.97;4.57;;;;;;;12.79;31.03;97137.31;5026954;28;20184;-70
2021/04/04 09:49:45;;;;;;;8.23;4.57;;;;;;;12.89;30.45;97140.56;5015764;28;20194;-68
2021/04/04 09:52:29;;;;;;;7.23;4.47;;;;;;;12.45;31.16;97139.16;5033792;28;20515;-70
2021/04/04 09:54:58;;;;;;;7.20;3.80;;;;;;;12.25;30.78;97142.13;5034634;28;20450;-70
2021/04/04 09:57:24;;;;;;;8.63;3.77;;;;;;;12.66;30.01;97133.38;5033620;28;20422;-68
2021/04/04 09:59:49;;;;;;;6.57;4.03;;;;;;;13.13;29.28;97128.31;5015107;28;20621;-68
2021/04/04 10:02:32;;;;;;;5.67;3.60;;;;;;;12.84;27.81;97132.38;5014988;28;20430;-71
2021/04/04 10:04:58;;;;;;;5.50;3.63;;;;;;;13.46;27.09;97128.22;5033476;28;20219;-68
2021/04/04 10:07:31;;;;;;;5.93;3.77;;;;;;;12.66;29.82;97122.88;5032283;28;20482;-71
2021/04/04 10:09:57;;;;;;;6.93;4.20;;;;;;;11.75;31.03;97128.09;5033088;28;20235;-69
2021/04/04 10:12:23;;;;;;;8.47;4.70;;;;;;;12.93;29.53;97118.19;5032120;28;20513;-69
2021/04/04 10:15:00;;;;;;;9.63;5.50;;;;;;;13.74;28.74;97125.91;5032335;28;20882;-69
2021/04/04 10:17:25;;;;;;;10.47;4.57;;;;;;;14.17;28.37;97114.91;5024079;28;20251;-70
2021/04/04 10:19:55;;;;;;;7.07;4.50;;;;;;;14.81;27.28;97110.19;5029619;28;20434;-71
2021/04/04 10:22:21;;;;;;;6.67;4.07;;;;;;;15.30;26.75;97114.09;5032004;28;20184;-71
2021/04/04 10:24:47;;;;;;;7.07;4.27;;;;;;;15.29;26.69;97101.91;5031255;28;20473;-71
2021/04/04 10:27:25;;;;;;;4.97;3.97;;;;;;;15.12;27.03;97104.72;5032031;28;20574;-71
2021/04/04 10:30:17;;;;;;;4.40;3.93;;;;;;;15.31;26.08;97105.19;5014725;28;20484;-72
2021/04/04 10:32:47;;;;;;;6.20;3.43;;;;;;;14.74;26.51;97108.31;5032906;28;20414;-71
2021/04/04 10:35:30;;;;;;;4.70;3.57;;;;;;;14.66;25.72;97097.81;5033598;28;20439;-69
2021/04/04 10:38:03;;;;;;;5.00;3.03;;;;;;;14.90;24.77;97096.75;5033244;28;20465;-70
2021/04/04 10:40:52;;;;;;;7.90;4.30;;;;;;;14.64;25.07;97099.81;5031580;28;20462;-71
2021/04/04 10:43:22;;;;;;;4.50;2.87;;;;;;;14.93;23.68;97090.31;5019539;28;20426;-70
2021/04/04 10:46:01;;;;;;;2.93;2.40;;;;;;;14.28;24.97;97095.22;5027510;28;20988;-70
2021/04/04 10:48:28;;;;;;;31.47;15.60;;;;;;;14.57;24.82;97099.72;5032595;28;20426;-70
2021/04/04 10:50:54;;;;;;;6.83;3.20;;;;;;;14.88;24.17;97092.66;5030043;28;20419;-71
2021/04/04 10:53:20;;;;;;;7.40;4.07;;;;;;;14.95;23.56;97087.47;4998637;28;20422;-71
2021/04/04 10:55:47;;;;;;;18.07;8.10;;;;;;;14.84;24.80;97097.50;5032547;28;20435;-72
2021/04/04 10:58:20;;;;;;;4.30;3.10;;;;;;;15.46;23.60;97087.50;5031806;28;20206;-69
2021/04/04 11:00:47;;;;;;;5.80;3.20;;;;;;;15.15;24.29;97080.63;5031901;28;20438;-70
2021/04/04 11:03:12;;;;;;;7.07;3.67;;;;;;;15.43;23.92;97079.94;5031537;28;20430;-69
2021/04/04 11:05:38;;;;;;;4.60;3.47;;;;;;;15.86;23.38;97081.00;5032069;28;20470;-70
2021/04/04 11:08:04;;;;;;;5.57;3.30;;;;;;;15.94;22.94;97072.94;5031833;28;20184;-69
2021/04/04 11:10:30;;;;;;;4.23;3.30;;;;;;;15.52;23.20;97070.88;5030001;28;20195;-70
2021/04/04 11:12:57;;;;;;;3.40;3.10;;;;;;;15.38;23.73;97069.09;5031095;28;20435;-70
2021/04/04 11:15:24;;;;;;;4.10;3.10;;;;;;;15.00;24.28;97071.91;5029188;28;20192;-70
2021/04/04 11:17:50;;;;;;;3.80;2.87;;;;;;;15.29;23.52;97062.31;5024103;28;20423;-71
2021/04/04 11:20:17;;;;;;;4.67;3.30;;;;;;;15.01;24.19;97066.44;5031381;28;20456;-70
2021/04/04 11:22:42;;;;;;;8.60;5.00;;;;;;;15.20;24.58;97061.59;5030098;28;20419;-71
2021/04/04 11:25:10;;;;;;;3.23;2.93;;;;;;;15.23;24.07;97055.13;5030940;28;20524;-70
2021/04/04 11:27:49;;;;;;;6.83;4.47;;;;;;;15.50;24.57;97051.75;5030893;28;20529;-70
2021/04/04 11:30:34;;;;;;;10.43;4.37;;;;;;;15.80;24.11;97056.94;5015855;28;20565;-70
2021/04/04 11:33:15;;;;;;;11.13;4.33;;;;;;;16.10;23.79;97046.25;5030750;28;20430;-70
2021/04/04 11:36:10;;;;;;;7.93;4.10;;;;;;;16.43;23.30;97044.88;5031856;28;20580;-70
2021/04/04 11:39:08;;;;;;;5.80;4.23;;;;;;;16.64;22.34;97040.50;5022462;28;20949;-71
2021/04/04 11:41:45;;;;;;;4.80;3.87;;;;;;;16.43;22.64;97035.09;5029342;28;20422;-71
2021/04/04 11:44:17;;;;;;;5.50;3.93;;;;;;;16.58;22.69;97037.59;5031713;28;20454;-71
2021/04/04 11:46:48;;;;;;;4.90;3.90;;;;;;;16.94;21.82;97024.38;5024866;28;20429;-70
2021/04/04 11:49:38;;;;;;;9.33;3.73;;;;;;;16.61;22.41;97025.00;5016993;28;20901;-70
2021/04/04 11:52:09;;;;;;;4.63;3.77;;;;;;;15.79;23.75;97036.81;5031332;28;20422;-70
2021/04/04 11:54:41;;;;;;;6.60;3.70;;;;;;;15.71;23.40;97029.03;5031526;28;20438;-69